sensor_id;sensor_type;location;lat;lon;timestamp;temperature;humidity
45311;SHT31;68264;51.540;5.854;2023-04-03T00:11:44;0.8;86.6
45311;SHT31;68264;51.540;5.854;2023-04-03T00:26:02;0.5;87.0
45311;SHT31;68264;51.540;5.854;2023-04-03T00:39:51;0.6;86.7
45311;SHT31;68264;51.540;5.854;2023-04-03T00:54:09;0.6;87.4
45311;SHT31;68264;51.540;5.854;2023-04-03T01:08:28;0.5;87.7
45311;SHT31;68264;51.540;5.854;2023-04-03T01:22:17;0.4;87.1
45311;SHT31;68264;51.540;5.854;2023-04-03T01:36:15;0.3;87.7
45311;SHT31;68264;51.540;5.854;2023-04-03T01:50:33;0.3;87.9
45311;SHT31;68264;51.540;5.854;2023-04-03T02:04:52;0.2;87.5
45311;SHT31;68264;51.540;5.854;2023-04-03T02:18:41;0.2;87.7
45311;SHT31;68264;51.540;5.854;2023-04-03T02:32:40;0.3;87.9
45311;SHT31;68264;51.540;5.854;2023-04-03T02:46:29;0.7;89.5
45311;SHT31;68264;51.540;5.854;2023-04-03T03:00:17;1.0;89.8
45311;SHT31;68264;51.540;5.854;2023-04-03T03:14:06;1.1;89.6
45311;SHT31;68264;51.540;5.854;2023-04-03T03:28:05;1.1;89.2
45311;SHT31;68264;51.540;5.854;2023-04-03T03:41:53;0.9;88.8
45311;SHT31;68264;51.540;5.854;2023-04-03T03:55:42;0.8;88.6
45311;SHT31;68264;51.540;5.854;2023-04-03T04:09:31;0.6;88.4
45311;SHT31;68264;51.540;5.854;2023-04-03T04:23:49;0.5;88.8
45311;SHT31;68264;51.540;5.854;2023-04-03T04:38:37;0.4;87.5
45311;SHT31;68264;51.540;5.854;2023-04-03T04:52:56;0.2;88.0
45311;SHT31;68264;51.540;5.854;2023-04-03T05:06:45;0.3;88.4
45311;SHT31;68264;51.540;5.854;2023-04-03T05:21:02;0.5;88.5
45311;SHT31;68264;51.540;5.854;2023-04-03T05:35:21;0.7;88.3
45311;SHT31;68264;51.540;5.854;2023-04-03T05:49:10;0.8;88.0
45311;SHT31;68264;51.540;5.854;2023-04-03T06:03:09;1.1;87.8
45311;SHT31;68264;51.540;5.854;2023-04-03T06:17:08;1.4;87.0
45311;SHT31;68264;51.540;5.854;2023-04-03T06:31:26;1.9;85.4
45311;SHT31;68264;51.540;5.854;2023-04-03T06:45:45;2.2;84.4
45311;SHT31;68264;51.540;5.854;2023-04-03T06:59:33;3.1;80.9
45311;SHT31;68264;51.540;5.854;2023-04-03T07:13:22;3.8;78.1
45311;SHT31;68264;51.540;5.854;2023-04-03T07:27:50;4.7;73.6
45311;SHT31;68264;51.540;5.854;2023-04-03T07:43:10;5.5;69.4
45311;SHT31;68264;51.540;5.854;2023-04-03T07:58:10;5.8;67.9
45311;SHT31;68264;51.540;5.854;2023-04-03T08:11:58;6.2;65.1
45311;SHT31;68264;51.540;5.854;2023-04-03T08:25:57;6.5;61.6
45311;SHT31;68264;51.540;5.854;2023-04-03T08:39:46;6.5;65.6
45311;SHT31;68264;51.540;5.854;2023-04-03T08:54:04;7.3;58.7
45311;SHT31;68264;51.540;5.854;2023-04-03T09:09:24;7.4;61.2
45311;SHT31;68264;51.540;5.854;2023-04-03T09:24:23;7.6;51.5
45311;SHT31;68264;51.540;5.854;2023-04-03T09:38:12;7.6;48.4
45311;SHT31;68264;51.540;5.854;2023-04-03T09:52:01;8.1;48.6
45311;SHT31;68264;51.540;5.854;2023-04-03T10:05:49;8.2;43.7
45311;SHT31;68264;51.540;5.854;2023-04-03T10:19:38;8.3;44.9
45311;SHT31;68264;51.540;5.854;2023-04-03T10:33:27;8.3;46.7
45311;SHT31;68264;51.540;5.854;2023-04-03T10:47:15;8.4;43.7
45311;SHT31;68264;51.540;5.854;2023-04-03T11:01:04;8.8;45.0
45311;SHT31;68264;51.540;5.854;2023-04-03T11:14:53;8.8;43.6
45311;SHT31;68264;51.540;5.854;2023-04-03T11:28:41;9.0;41.6
45311;SHT31;68264;51.540;5.854;2023-04-03T11:42:59;9.5;42.1
45311;SHT31;68264;51.540;5.854;2023-04-03T11:57:47;9.4;43.7
45311;SHT31;68264;51.540;5.854;2023-04-03T12:12:06;9.5;46.2
45311;SHT31;68264;51.540;5.854;2023-04-03T12:25:55;9.2;43.3
45311;SHT31;68264;51.540;5.854;2023-04-03T12:40:13;9.4;45.9
45311;SHT31;68264;51.540;5.854;2023-04-03T12:54:32;9.7;44.3
45311;SHT31;68264;51.540;5.854;2023-04-03T13:08:21;9.5;44.8
45311;SHT31;68264;51.540;5.854;2023-04-03T13:23:11;9.8;44.1
45311;SHT31;68264;51.540;5.854;2023-04-03T13:38:39;10.2;43.6
45311;SHT31;68264;51.540;5.854;2023-04-03T13:52:58;10.1;42.5
45311;SHT31;68264;51.540;5.854;2023-04-03T14:06:57;9.7;43.6
45311;SHT31;68264;51.540;5.854;2023-04-03T14:20:46;9.8;43.7
45311;SHT31;68264;51.540;5.854;2023-04-03T14:34:34;10.2;44.5
45311;SHT31;68264;51.540;5.854;2023-04-03T14:48:23;9.8;44.4
45311;SHT31;68264;51.540;5.854;2023-04-03T15:02:12;10.0;47.9
45311;SHT31;68264;51.540;5.854;2023-04-03T15:16:11;10.0;43.7
45311;SHT31;68264;51.540;5.854;2023-04-03T15:33:41;10.3;44.6
45311;SHT31;68264;51.540;5.854;2023-04-03T15:51:21;10.0;45.4
45311;SHT31;68264;51.540;5.854;2023-04-03T16:06:11;10.0;45.5
45311;SHT31;68264;51.540;5.854;2023-04-03T16:21:40;9.8;46.9
45311;SHT31;68264;51.540;5.854;2023-04-03T16:37:00;9.2;49.5
45311;SHT31;68264;51.540;5.854;2023-04-03T16:52:00;8.9;49.5
45311;SHT31;68264;51.540;5.854;2023-04-03T17:05:58;8.6;49.7
45311;SHT31;68264;51.540;5.854;2023-04-03T17:19:47;8.4;50.9
45311;SHT31;68264;51.540;5.854;2023-04-03T17:34:05;8.0;51.5
45311;SHT31;68264;51.540;5.854;2023-04-03T17:48:24;7.6;53.6
45311;SHT31;68264;51.540;5.854;2023-04-03T18:03:46;7.3;55.7
45311;SHT31;68264;51.540;5.854;2023-04-03T18:19:16;6.7;57.2
45311;SHT31;68264;51.540;5.854;2023-04-03T18:33:04;6.2;57.1
45311;SHT31;68264;51.540;5.854;2023-04-03T18:46:53;5.9;59.9
45311;SHT31;68264;51.540;5.854;2023-04-03T19:00:42;5.5;61.3
45311;SHT31;68264;51.540;5.854;2023-04-03T19:14:41;5.1;62.9
45311;SHT31;68264;51.540;5.854;2023-04-03T19:28:29;4.9;64.6
45311;SHT31;68264;51.540;5.854;2023-04-03T19:42:28;4.5;65.8
45311;SHT31;68264;51.540;5.854;2023-04-03T19:56:46;3.9;67.9
45311;SHT31;68264;51.540;5.854;2023-04-03T20:11:05;3.4;70.4
45311;SHT31;68264;51.540;5.854;2023-04-03T20:24:54;3.0;71.1
45311;SHT31;68264;51.540;5.854;2023-04-03T20:39:43;2.7;71.8
45311;SHT31;68264;51.540;5.854;2023-04-03T20:54:43;2.7;71.5
45311;SHT31;68264;51.540;5.854;2023-04-03T21:23:20;2.0;71.6
45311;SHT31;68264;51.540;5.854;2023-04-03T21:37:08;2.0;74.4
45311;SHT31;68264;51.540;5.854;2023-04-03T21:50:57;1.8;74.4
45311;SHT31;68264;51.540;5.854;2023-04-03T22:04:46;1.6;74.9
45311;SHT31;68264;51.540;5.854;2023-04-03T22:18:34;1.5;74.0
45311;SHT31;68264;51.540;5.854;2023-04-03T22:32:23;1.3;73.8
45311;SHT31;68264;51.540;5.854;2023-04-03T22:46:12;0.9;74.4
45311;SHT31;68264;51.540;5.854;2023-04-03T23:00:00;0.7;76.2
45311;SHT31;68264;51.540;5.854;2023-04-03T23:14:18;0.6;77.3
45311;SHT31;68264;51.540;5.854;2023-04-03T23:30:10;0.6;77.4
45311;SHT31;68264;51.540;5.854;2023-04-03T23:45:40;0.6;76.6
45311;SHT31;68264;51.540;5.854;2023-04-03T23:59:29;0.4;75.6
